createdAt,value
2023-01-21T00:02:23.753Z,11.50
2023-01-21T00:04:56.335Z,11.50
2023-01-21T00:07:28.922Z,11.50
2023-01-21T00:10:01.447Z,11.50
2023-01-21T00:12:34.080Z,11.50
2023-01-21T00:15:07.131Z,11.50
2023-01-21T00:17:39.759Z,11.50
2023-01-21T00:20:15.586Z,11.50
2023-01-21T00:22:48.319Z,11.50
2023-01-21T00:25:21.539Z,11.50
2023-01-21T00:27:54.199Z,11.50
2023-01-21T00:30:27.340Z,11.50
2023-01-21T00:33:00.487Z,11.50
2023-01-21T00:35:33.078Z,11.50
2023-01-21T00:38:05.716Z,11.50
2023-01-21T00:40:38.384Z,11.50
2023-01-21T00:43:10.999Z,11.50
2023-01-21T00:45:43.656Z,11.40
2023-01-21T00:48:16.246Z,11.40
2023-01-21T00:50:48.831Z,11.40
2023-01-21T00:53:21.377Z,11.40
2023-01-21T00:55:54.221Z,11.40
2023-01-21T00:58:26.999Z,11.50
2023-01-21T01:01:04.215Z,11.40
2023-01-21T01:03:38.351Z,11.40
2023-01-21T01:06:14.032Z,11.40
2023-01-21T01:08:47.534Z,11.40
2023-01-21T01:11:21.805Z,11.40
2023-01-21T01:13:55.171Z,11.40
2023-01-21T01:16:27.626Z,11.40
2023-01-21T01:19:00.491Z,11.40
2023-01-21T01:21:33.092Z,11.30
2023-01-21T01:24:06.514Z,11.30
2023-01-21T01:26:41.851Z,11.30
2023-01-21T01:29:14.662Z,11.30
2023-01-21T01:31:47.309Z,11.30
2023-01-21T01:34:19.919Z,11.30
2023-01-21T01:36:52.577Z,11.20
2023-01-21T01:39:25.227Z,11.20
2023-01-21T01:41:58.060Z,11.20
2023-01-21T01:44:56.251Z,11.10
2023-01-21T01:47:33.928Z,11.20
2023-01-21T01:50:11.799Z,11.20
2023-01-21T01:52:45.208Z,11.10
2023-01-21T01:55:17.707Z,11.10
2023-01-21T01:57:53.222Z,11.10
2023-01-21T02:00:26.728Z,11.10
2023-01-21T02:03:17.855Z,11.10
2023-01-21T02:05:50.907Z,11.10
2023-01-21T02:08:25.018Z,11.00
2023-01-21T02:10:57.635Z,11.00
2023-01-21T02:13:31.944Z,11.00
2023-01-21T02:16:21.172Z,11.00
2023-01-21T02:19:22.475Z,11.00
2023-01-21T02:22:04.998Z,10.90
2023-01-21T02:24:49.416Z,11.00
2023-01-21T02:27:42.388Z,11.00
2023-01-21T02:30:47.557Z,11.00
2023-01-21T02:33:26.219Z,11.00
2023-01-21T02:36:11.020Z,11.00
2023-01-21T02:38:59.520Z,11.00
2023-01-21T02:41:46.584Z,11.00
2023-01-21T02:44:40.284Z,10.90
2023-01-21T02:48:06.599Z,11.00
2023-01-21T02:50:44.994Z,10.90
2023-01-21T02:53:28.350Z,10.90
2023-01-21T02:56:09.624Z,10.90
2023-01-21T02:58:50.063Z,10.90
2023-01-21T03:01:48.821Z,10.80
2023-01-21T03:04:50.109Z,10.90
2023-01-21T03:07:36.630Z,10.90
2023-01-21T03:10:41.464Z,10.80
2023-01-21T03:13:47.830Z,10.80
2023-01-21T03:16:43.723Z,10.80
2023-01-21T03:19:19.804Z,10.80
2023-01-21T03:21:54.103Z,10.80
2023-01-21T03:24:27.394Z,10.80
2023-01-21T03:27:02.274Z,10.80
2023-01-21T03:29:36.879Z,10.80
2023-01-21T03:32:14.572Z,10.80
2023-01-21T03:34:51.934Z,10.70
2023-01-21T03:37:38.144Z,10.80
2023-01-21T03:40:33.835Z,10.70
2023-01-21T03:43:06.438Z,10.70
2023-01-21T03:46:12.575Z,10.70
2023-01-21T03:49:22.016Z,10.70
2023-01-21T03:51:58.070Z,10.80
2023-01-21T03:54:31.261Z,10.80
2023-01-21T03:57:03.795Z,10.80
2023-01-21T03:59:36.380Z,10.80
2023-01-21T04:02:09.021Z,10.70
2023-01-21T04:04:41.808Z,10.70
2023-01-21T04:07:15.974Z,10.70
2023-01-21T04:09:50.118Z,10.70
2023-01-21T04:12:22.680Z,10.70
2023-01-21T04:14:55.289Z,10.70
2023-01-21T04:17:28.614Z,10.70
2023-01-21T04:20:01.150Z,10.70
2023-01-21T04:22:33.630Z,10.70
2023-01-21T04:25:06.404Z,10.80
2023-01-21T04:27:38.905Z,10.80
2023-01-21T04:30:11.752Z,10.80
2023-01-21T04:32:44.257Z,10.80
2023-01-21T04:35:16.871Z,10.80
2023-01-21T04:37:49.531Z,10.80
2023-01-21T04:40:22.078Z,10.80
2023-01-21T04:42:54.596Z,10.80
2023-01-21T04:45:27.218Z,10.80
2023-01-21T04:47:59.687Z,10.80
2023-01-21T04:50:32.318Z,10.80
2023-01-21T04:53:05.034Z,10.80
2023-01-21T04:55:37.582Z,10.80
2023-01-21T04:58:10.182Z,10.80
2023-01-21T05:00:42.745Z,10.70
2023-01-21T05:03:15.907Z,10.80
2023-01-21T05:05:48.819Z,10.70
2023-01-21T05:08:21.356Z,10.70
2023-01-21T05:10:53.951Z,10.70
2023-01-21T05:13:26.531Z,10.70
2023-01-21T05:16:08.241Z,10.70
2023-01-21T05:18:41.462Z,10.70
2023-01-21T05:21:14.032Z,10.70
2023-01-21T05:23:46.540Z,10.70
2023-01-21T05:26:19.651Z,10.70
2023-01-21T05:28:52.158Z,10.70
2023-01-21T05:31:25.530Z,10.70
2023-01-21T05:33:57.954Z,10.70
2023-01-21T05:36:30.512Z,10.70
2023-01-21T05:39:03.118Z,10.70
2023-01-21T05:41:38.082Z,10.70
2023-01-21T05:44:10.751Z,10.70
2023-01-21T05:46:43.388Z,10.60
2023-01-21T05:49:15.984Z,10.60
2023-01-21T05:51:48.559Z,10.60
2023-01-21T05:54:21.112Z,10.60
2023-01-21T05:56:53.637Z,10.60
2023-01-21T05:59:26.200Z,10.50
2023-01-21T06:01:58.741Z,10.50
2023-01-21T06:04:31.305Z,10.50
2023-01-21T06:07:03.898Z,10.50
2023-01-21T06:09:36.439Z,10.50
2023-01-21T06:12:09.017Z,10.50
2023-01-21T06:14:41.529Z,10.50
2023-01-21T06:17:14.196Z,10.50
2023-01-21T06:19:46.689Z,10.40
2023-01-21T06:22:19.809Z,10.50
2023-01-21T06:24:52.355Z,10.50
2023-01-21T06:27:24.956Z,10.50
2023-01-21T06:29:57.445Z,10.50
2023-01-21T06:32:30.008Z,10.50
2023-01-21T06:35:02.807Z,10.50
2023-01-21T06:37:35.406Z,10.50
2023-01-21T06:40:09.071Z,10.50
2023-01-21T06:42:41.745Z,10.60
2023-01-21T06:45:15.269Z,10.60
2023-01-21T06:47:47.984Z,10.70
2023-01-21T06:50:20.534Z,10.80
2023-01-21T06:52:53.123Z,10.90
2023-01-21T06:55:25.708Z,11.00
2023-01-21T06:57:58.199Z,11.20
2023-01-21T07:00:30.892Z,11.30
2023-01-21T07:03:03.419Z,11.40
2023-01-21T07:05:36.024Z,11.60
2023-01-21T07:08:08.595Z,11.70
2023-01-21T07:10:41.079Z,11.80
2023-01-21T07:13:13.641Z,12.00
2023-01-21T07:15:46.264Z,12.10
2023-01-21T07:18:18.925Z,12.20
2023-01-21T07:20:51.468Z,12.40
2023-01-21T07:23:24.420Z,12.50
2023-01-21T07:25:56.957Z,12.60
2023-01-21T07:28:29.603Z,12.80
2023-01-21T07:31:03.498Z,12.90
2023-01-21T07:33:36.150Z,13.10
2023-01-21T07:36:09.047Z,13.20
2023-01-21T07:38:41.689Z,13.30
2023-01-21T07:41:14.284Z,13.40
2023-01-21T07:43:50.764Z,13.60
2023-01-21T07:46:23.900Z,13.70
2023-01-21T07:48:56.540Z,13.90
2023-01-21T07:51:29.189Z,14.00
2023-01-21T07:54:01.689Z,14.10
2023-01-21T07:56:34.258Z,14.20
2023-01-21T07:59:07.271Z,14.30
2023-01-21T08:01:40.153Z,14.40
2023-01-21T08:04:12.706Z,14.50
2023-01-21T08:06:45.260Z,14.50
2023-01-21T08:09:17.883Z,14.60
2023-01-21T08:11:50.436Z,14.70
2023-01-21T08:14:23.011Z,14.80
2023-01-21T08:16:55.871Z,14.80
2023-01-21T08:19:28.437Z,14.90
2023-01-21T08:22:01.015Z,15.00
2023-01-21T08:24:33.688Z,15.00
2023-01-21T08:27:06.238Z,15.10
2023-01-21T08:29:38.746Z,15.20
2023-01-21T08:32:11.249Z,15.30
2023-01-21T08:34:43.770Z,15.40
2023-01-21T08:37:16.413Z,15.50
2023-01-21T08:39:48.941Z,15.50
2023-01-21T08:42:21.573Z,15.60
2023-01-21T08:44:54.322Z,15.70
2023-01-21T08:47:27.233Z,15.70
2023-01-21T08:49:59.825Z,15.80
2023-01-21T08:52:32.500Z,15.80
2023-01-21T08:55:05.356Z,15.90
2023-01-21T08:57:37.879Z,16.00
2023-01-21T09:00:11.048Z,16.00
2023-01-21T09:02:43.586Z,16.00
2023-01-21T09:05:16.458Z,16.10
2023-01-21T09:07:49.310Z,16.10
2023-01-21T09:10:40.392Z,16.10
2023-01-21T09:13:13.046Z,16.10
2023-01-21T09:15:45.983Z,16.10
2023-01-21T09:18:18.538Z,16.10
2023-01-21T09:20:51.082Z,16.10
2023-01-21T09:23:26.506Z,16.10
2023-01-21T09:26:19.969Z,16.20
2023-01-21T09:28:55.164Z,16.20
2023-01-21T09:31:30.155Z,16.20
2023-01-21T09:34:05.611Z,16.20
2023-01-21T09:36:39.249Z,16.30
2023-01-21T09:39:11.864Z,16.30
2023-01-21T09:41:49.427Z,16.40
2023-01-21T09:44:45.078Z,16.40
2023-01-21T09:47:29.958Z,16.40
2023-01-21T09:50:16.907Z,16.40
2023-01-21T09:52:54.751Z,16.40
2023-01-21T09:55:47.918Z,16.50
2023-01-21T09:58:42.390Z,16.50
2023-01-21T10:01:37.280Z,16.50
2023-01-21T10:04:25.469Z,16.60
2023-01-21T10:07:17.614Z,16.60
2023-01-21T10:10:07.462Z,16.60
2023-01-21T10:13:17.306Z,16.60
2023-01-21T10:15:55.764Z,16.60
2023-01-21T10:18:31.719Z,16.60
2023-01-21T10:21:14.124Z,16.60
2023-01-21T10:23:54.687Z,16.60
2023-01-21T10:26:30.739Z,16.60
2023-01-21T10:29:03.565Z,16.60
2023-01-21T10:31:43.046Z,16.60
2023-01-21T10:34:19.761Z,16.60
2023-01-21T10:37:06.531Z,16.60
2023-01-21T10:40:49.683Z,16.60
2023-01-21T10:43:34.776Z,16.50
2023-01-21T10:46:37.357Z,16.50
2023-01-21T10:49:45.330Z,16.40
2023-01-21T10:52:58.037Z,16.40
2023-01-21T10:56:00.504Z,16.30
2023-01-21T10:58:41.830Z,16.30
2023-01-21T11:01:30.701Z,16.30
2023-01-21T11:04:18.471Z,16.20
2023-01-21T11:07:01.351Z,16.20
2023-01-21T11:09:38.878Z,16.20
2023-01-21T11:12:14.731Z,16.10
2023-01-21T11:14:57.801Z,16.10
2023-01-21T11:17:33.382Z,16.00
2023-01-21T11:20:35.002Z,16.00
2023-01-21T11:23:25.614Z,15.90
2023-01-21T11:26:03.824Z,15.90
2023-01-21T11:28:36.340Z,15.90
2023-01-21T11:31:14.419Z,15.80
2023-01-21T11:33:47.269Z,15.80
2023-01-21T11:36:21.637Z,15.80
2023-01-21T11:39:06.274Z,15.80
2023-01-21T11:41:39.172Z,15.70
2023-01-21T11:44:19.835Z,15.70
2023-01-21T11:46:52.736Z,15.70
2023-01-21T11:49:31.949Z,15.70
2023-01-21T11:52:22.400Z,15.60
2023-01-21T11:54:54.986Z,15.60
2023-01-21T11:57:33.998Z,15.60
2023-01-21T12:00:20.127Z,15.60
2023-01-21T12:02:57.252Z,15.50
2023-01-21T12:05:36.450Z,15.50
2023-01-21T12:08:31.812Z,15.50
2023-01-21T12:11:06.866Z,15.50
2023-01-21T12:14:04.369Z,15.50
2023-01-21T12:17:06.834Z,15.50
2023-01-21T12:19:47.677Z,15.40
2023-01-21T12:22:38.145Z,15.40
2023-01-21T12:25:30.952Z,15.40
2023-01-21T12:28:21.638Z,15.40
2023-01-21T12:31:08.401Z,15.40
2023-01-21T12:34:12.315Z,15.40
2023-01-21T12:36:58.612Z,15.40
2023-01-21T12:39:36.394Z,15.40
2023-01-21T12:42:25.487Z,15.40
2023-01-21T12:45:06.504Z,15.40
2023-01-21T12:47:50.354Z,15.30
2023-01-21T12:50:53.946Z,15.30
2023-01-21T12:53:50.869Z,15.30
2023-01-21T12:56:39.370Z,15.30
2023-01-21T12:59:29.938Z,15.30
2023-01-21T13:02:06.168Z,15.30
2023-01-21T13:05:06.560Z,15.30
2023-01-21T13:07:39.075Z,15.30
2023-01-21T13:10:25.095Z,15.30
2023-01-21T13:13:17.328Z,15.30
2023-01-21T13:15:54.310Z,15.30
2023-01-21T13:18:32.451Z,15.20
2023-01-21T13:21:20.299Z,15.30
2023-01-21T13:24:23.293Z,15.20
2023-01-21T13:27:27.324Z,15.20
2023-01-21T13:30:08.510Z,15.20
2023-01-21T13:33:02.003Z,15.20
2023-01-21T13:35:37.557Z,15.20
2023-01-21T13:38:27.629Z,15.20
2023-01-21T13:41:02.950Z,15.10
2023-01-21T13:44:09.492Z,15.20
2023-01-21T13:47:04.163Z,15.10
2023-01-21T13:49:45.726Z,15.10
2023-01-21T13:52:40.020Z,15.10
2023-01-21T13:55:37.355Z,15.10
2023-01-21T13:58:11.286Z,15.10
2023-01-21T14:00:45.839Z,15.00
2023-01-21T14:03:32.727Z,15.00
2023-01-21T14:06:16.388Z,15.00
2023-01-21T14:09:01.063Z,15.00
2023-01-21T14:11:48.425Z,15.00
2023-01-21T14:14:56.017Z,14.90
2023-01-21T14:17:55.510Z,14.90
2023-01-21T14:20:39.463Z,14.90
2023-01-21T14:23:46.664Z,14.80
2023-01-21T14:26:49.101Z,14.80
2023-01-21T14:29:50.816Z,14.70
2023-01-21T14:32:37.871Z,14.70
2023-01-21T14:35:35.771Z,14.70
2023-01-21T14:38:30.810Z,14.60
2023-01-21T14:41:09.225Z,14.60
2023-01-21T14:43:41.797Z,14.60
2023-01-21T14:46:36.034Z,14.60
2023-01-21T14:49:10.669Z,14.60
2023-01-21T14:51:50.175Z,14.60
2023-01-21T14:54:28.111Z,14.60
2023-01-21T14:57:18.317Z,14.60
2023-01-21T14:59:54.533Z,14.60
2023-01-21T15:02:34.089Z,14.50
2023-01-21T15:05:24.990Z,14.50
2023-01-21T15:08:06.485Z,14.50
2023-01-21T15:10:41.247Z,14.50
2023-01-21T15:13:40.017Z,14.50
2023-01-21T15:16:19.402Z,14.50
2023-01-21T15:19:11.375Z,14.50
2023-01-21T15:21:43.974Z,14.40
2023-01-21T15:24:23.366Z,14.40
2023-01-21T15:27:14.568Z,14.40
2023-01-21T15:29:57.031Z,14.40
2023-01-21T15:32:39.222Z,14.40
2023-01-21T15:35:30.385Z,14.30
2023-01-21T15:38:09.364Z,14.30
2023-01-21T15:41:09.360Z,14.20
2023-01-21T15:43:55.253Z,14.30
2023-01-21T15:46:36.908Z,14.20
2023-01-21T15:49:33.729Z,14.20
2023-01-21T15:52:28.851Z,14.10
2023-01-21T15:55:20.643Z,14.10
2023-01-21T15:58:16.207Z,14.10
2023-01-21T16:01:05.840Z,14.00
2023-01-21T16:03:58.767Z,14.00
2023-01-21T16:06:37.774Z,14.00
2023-01-21T16:09:17.564Z,13.90
2023-01-21T16:12:02.676Z,13.90
2023-01-21T16:14:52.838Z,13.90
2023-01-21T16:17:43.203Z,13.90
2023-01-21T16:20:17.521Z,13.80
2023-01-21T16:22:53.655Z,13.80
2023-01-21T16:25:27.859Z,13.70
2023-01-21T16:28:00.531Z,13.70
2023-01-21T16:30:33.166Z,13.70
2023-01-21T16:33:16.234Z,13.60
2023-01-21T16:36:02.797Z,13.60
2023-01-21T16:38:37.793Z,13.60
2023-01-21T16:41:14.068Z,13.60
2023-01-21T16:43:50.095Z,13.60
2023-01-21T16:46:37.757Z,13.60
2023-01-21T16:49:17.079Z,13.50
2023-01-21T16:51:57.989Z,13.50
2023-01-21T16:54:31.819Z,13.40
2023-01-21T16:57:25.955Z,13.40
2023-01-21T17:00:02.623Z,13.40
2023-01-21T17:02:35.544Z,13.40
2023-01-21T17:05:14.160Z,13.40
2023-01-21T17:07:52.098Z,13.30
2023-01-21T17:10:31.490Z,13.30
2023-01-21T17:13:15.634Z,13.30
2023-01-21T17:16:03.400Z,13.30
2023-01-21T17:18:42.536Z,13.20
2023-01-21T17:21:23.858Z,13.20
2023-01-21T17:24:16.219Z,13.20
2023-01-21T17:26:52.493Z,13.20
2023-01-21T17:29:30.910Z,13.20
2023-01-21T17:32:25.996Z,13.10
2023-01-21T17:35:16.109Z,13.10
2023-01-21T17:38:00.462Z,13.10
2023-01-21T17:40:34.500Z,13.00
2023-01-21T17:43:23.095Z,13.00
2023-01-21T17:45:57.606Z,13.00
2023-01-21T17:48:38.018Z,13.00
2023-01-21T17:51:20.514Z,13.00
2023-01-21T17:54:08.170Z,13.00
2023-01-21T17:56:51.032Z,12.90
2023-01-21T17:59:37.944Z,12.90
2023-01-21T18:02:12.858Z,12.90
2023-01-21T18:04:45.604Z,12.90
2023-01-21T18:07:26.592Z,12.90
2023-01-21T18:10:03.073Z,12.90
2023-01-21T18:12:35.694Z,12.90
2023-01-21T18:15:08.664Z,12.90
2023-01-21T18:17:46.879Z,12.80
2023-01-21T18:20:22.622Z,12.80
2023-01-21T18:22:59.404Z,12.80
2023-01-21T18:25:31.917Z,12.80
2023-01-21T18:28:06.707Z,12.80
2023-01-21T18:30:39.317Z,12.80
2023-01-21T18:33:13.107Z,12.80
2023-01-21T18:35:48.637Z,12.80
2023-01-21T18:38:27.696Z,12.80
2023-01-21T18:41:00.440Z,12.80
2023-01-21T18:43:33.003Z,12.80
2023-01-21T18:46:13.848Z,12.70
2023-01-21T18:48:46.767Z,12.80
2023-01-21T18:51:19.346Z,12.70
2023-01-21T18:53:52.050Z,12.70
2023-01-21T18:56:24.616Z,12.70
2023-01-21T18:58:57.220Z,12.70
2023-01-21T19:01:29.967Z,12.60
2023-01-21T19:04:09.424Z,12.60
2023-01-21T19:06:43.588Z,12.60
2023-01-21T19:09:25.494Z,12.60
2023-01-21T19:11:58.194Z,12.50
2023-01-21T19:14:33.167Z,12.50
2023-01-21T19:17:06.349Z,12.50
2023-01-21T19:19:39.125Z,12.50
2023-01-21T19:22:21.994Z,12.40
2023-01-21T19:24:54.538Z,12.40
2023-01-21T19:27:39.462Z,12.40
2023-01-21T19:30:19.527Z,12.40
2023-01-21T19:32:57.779Z,12.30
2023-01-21T19:35:40.385Z,12.30
2023-01-21T19:38:21.519Z,12.30
2023-01-21T19:40:59.739Z,12.20
2023-01-21T19:43:40.615Z,12.20
2023-01-21T19:46:19.488Z,12.20
2023-01-21T19:48:54.422Z,12.20
2023-01-21T19:51:35.413Z,12.20
2023-01-21T19:54:10.688Z,12.20
2023-01-21T19:56:44.218Z,12.10
2023-01-21T19:59:18.071Z,12.10
2023-01-21T20:01:51.706Z,12.10
2023-01-21T20:04:25.852Z,12.10
2023-01-21T20:06:59.480Z,12.10
2023-01-21T20:09:34.235Z,12.10
2023-01-21T20:12:13.541Z,12.10
2023-01-21T20:14:50.140Z,12.00
2023-01-21T20:17:28.412Z,12.00
2023-01-21T20:20:34.115Z,12.00
2023-01-21T20:23:25.831Z,12.00
2023-01-21T20:26:17.274Z,11.90
2023-01-21T20:29:04.733Z,11.90
2023-01-21T20:31:44.505Z,11.90
2023-01-21T20:34:26.310Z,11.90
2023-01-21T20:37:06.817Z,11.80
2023-01-21T20:39:44.425Z,11.80
2023-01-21T20:45:17.635Z,11.80
2023-01-21T20:48:02.109Z,11.80
2023-01-21T20:50:36.301Z,11.80
2023-01-21T20:53:13.476Z,11.80
2023-01-21T20:56:34.438Z,11.80
2023-01-21T20:59:10.181Z,11.70
2023-01-21T21:01:57.580Z,11.70
2023-01-21T21:04:34.683Z,11.70
2023-01-21T21:07:26.107Z,11.70
2023-01-21T21:10:14.094Z,11.60
2023-01-21T21:12:58.033Z,11.60
2023-01-21T21:16:03.693Z,11.60
2023-01-21T21:18:44.071Z,11.60
2023-01-21T21:21:25.465Z,11.60
2023-01-21T21:24:11.507Z,11.60
2023-01-21T21:26:55.159Z,11.60
2023-01-21T21:29:35.298Z,11.50
2023-01-21T21:32:30.979Z,11.60
2023-01-21T21:35:43.111Z,11.50
2023-01-21T21:38:24.986Z,11.50
2023-01-21T21:41:22.925Z,11.50
2023-01-21T21:44:13.492Z,11.50
2023-01-21T21:47:09.907Z,11.50
2023-01-21T21:49:51.256Z,11.50
2023-01-21T21:52:31.847Z,11.40
2023-01-21T21:55:20.750Z,11.40
2023-01-21T21:58:04.157Z,11.40
2023-01-21T22:00:44.174Z,11.40
2023-01-21T22:03:26.236Z,11.40
2023-01-21T22:06:25.801Z,11.40
2023-01-21T22:09:03.797Z,11.40
2023-01-21T22:11:44.172Z,11.40
2023-01-21T22:17:30.063Z,11.30
2023-01-21T22:20:20.992Z,11.30
2023-01-21T22:23:01.848Z,11.30
2023-01-21T22:25:38.760Z,11.30
2023-01-21T22:28:18.563Z,11.30
2023-01-21T22:30:58.862Z,11.30
2023-01-21T22:33:41.124Z,11.30
2023-01-21T22:36:22.612Z,11.30
2023-01-21T22:39:26.354Z,11.30
2023-01-21T22:42:10.318Z,11.30
2023-01-21T22:44:57.403Z,11.30
2023-01-21T22:47:40.670Z,11.30
2023-01-21T22:50:22.667Z,11.30
2023-01-21T22:53:02.480Z,11.30
2023-01-21T22:56:14.715Z,11.30
2023-01-21T22:58:59.233Z,11.30
2023-01-21T23:01:39.180Z,11.30
2023-01-21T23:04:21.440Z,11.30
2023-01-21T23:07:00.623Z,11.20
2023-01-21T23:09:42.132Z,11.20
2023-01-21T23:12:22.921Z,11.20
2023-01-21T23:15:09.989Z,11.30
2023-01-21T23:17:49.845Z,11.30
2023-01-21T23:20:31.073Z,11.20
2023-01-21T23:23:10.844Z,11.20
2023-01-21T23:25:56.802Z,11.20
2023-01-21T23:28:42.550Z,11.20
2023-01-21T23:31:21.103Z,11.20
2023-01-21T23:34:05.025Z,11.20
2023-01-21T23:36:46.320Z,11.20
2023-01-21T23:39:52.086Z,11.20
2023-01-21T23:42:36.066Z,11.10
2023-01-21T23:45:17.753Z,11.20
2023-01-21T23:48:03.003Z,11.10
2023-01-21T23:50:42.326Z,11.20
2023-01-21T23:53:44.920Z,11.20
2023-01-21T23:56:35.609Z,11.20
2023-01-21T23:59:17.542Z,11.20
